sensor_id;sensor_type;location;lat;lon;timestamp;pressure;altitude;pressure_sealevel;temperature;humidity
15750;BME280;7976;52.526;13.326;2022-10-26T00:01:08;101345.28;;;12.65;94.07
15750;BME280;7976;52.526;13.326;2022-10-26T00:03:36;101353.22;;;12.63;94.01
15750;BME280;7976;52.526;13.326;2022-10-26T00:06:07;101353.25;;;12.62;94.04
15750;BME280;7976;52.526;13.326;2022-10-26T00:08:34;101362.97;;;12.60;93.87
15750;BME280;7976;52.526;13.326;2022-10-26T00:11:02;101360.38;;;12.58;93.96
15750;BME280;7976;52.526;13.326;2022-10-26T00:13:31;101356.84;;;12.59;94.22
15750;BME280;7976;52.526;13.326;2022-10-26T00:15:58;101353.31;;;12.60;94.05
15750;BME280;7976;52.526;13.326;2022-10-26T00:18:25;101356.00;;;12.59;94.18
15750;BME280;7976;52.526;13.326;2022-10-26T00:20:52;101356.84;;;12.59;94.11
15750;BME280;7976;52.526;13.326;2022-10-26T00:23:19;101356.84;;;12.59;93.93
15750;BME280;7976;52.526;13.326;2022-10-26T00:25:53;101362.09;;;12.59;93.91
15750;BME280;7976;52.526;13.326;2022-10-26T00:28:20;101369.16;;;12.57;93.87
15750;BME280;7976;52.526;13.326;2022-10-26T00:30:49;101365.81;;;12.54;93.90
15750;BME280;7976;52.526;13.326;2022-10-26T00:33:16;101372.00;;;12.51;93.93
15750;BME280;7976;52.526;13.326;2022-10-26T00:35:47;101375.63;;;12.49;94.04
15750;BME280;7976;52.526;13.326;2022-10-26T00:38:14;101376.44;;;12.49;94.10
15750;BME280;7976;52.526;13.326;2022-10-26T00:40:41;101378.25;;;12.47;94.31
15750;BME280;7976;52.526;13.326;2022-10-26T00:43:14;101383.50;;;12.47;94.36
15750;BME280;7976;52.526;13.326;2022-10-26T00:45:42;101384.44;;;12.46;94.35
15750;BME280;7976;52.526;13.326;2022-10-26T00:48:18;101380.06;;;12.47;94.17
15750;BME280;7976;52.526;13.326;2022-10-26T00:50:47;101386.31;;;12.43;94.15
15750;BME280;7976;52.526;13.326;2022-10-26T00:53:14;101380.25;;;12.41;94.19
15750;BME280;7976;52.526;13.326;2022-10-26T00:55:46;101372.38;;;12.41;94.22
15750;BME280;7976;52.526;13.326;2022-10-26T00:58:16;101375.00;;;12.41;94.42
15750;BME280;7976;52.526;13.326;2022-10-26T01:00:44;101368.91;;;12.40;94.37
15750;BME280;7976;52.526;13.326;2022-10-26T01:03:15;101371.59;;;12.39;94.39
15750;BME280;7976;52.526;13.326;2022-10-26T01:05:45;101370.84;;;12.35;94.58
15750;BME280;7976;52.526;13.326;2022-10-26T01:08:15;101372.53;;;12.36;94.49
15750;BME280;7976;52.526;13.326;2022-10-26T01:10:42;101364.72;;;12.35;94.43
15750;BME280;7976;52.526;13.326;2022-10-26T01:13:10;101364.78;;;12.33;94.40
15750;BME280;7976;52.526;13.326;2022-10-26T01:15:48;101370.03;;;12.33;94.52
15750;BME280;7976;52.526;13.326;2022-10-26T01:18:28;101372.75;;;12.30;94.17
15750;BME280;7976;52.526;13.326;2022-10-26T01:21:33;101365.78;;;12.29;94.40
15750;BME280;7976;52.526;13.326;2022-10-26T01:24:36;101365.72;;;12.31;94.62
15750;BME280;7976;52.526;13.326;2022-10-26T01:27:28;101364.06;;;12.28;94.56
15750;BME280;7976;52.526;13.326;2022-10-26T01:30:19;101360.59;;;12.28;94.67
15750;BME280;7976;52.526;13.326;2022-10-26T01:33:16;101350.16;;;12.26;94.64
15750;BME280;7976;52.526;13.326;2022-10-26T01:35:57;101355.38;;;12.26;94.41
15750;BME280;7976;52.526;13.326;2022-10-26T01:38:34;101355.28;;;12.29;94.64
15750;BME280;7976;52.526;13.326;2022-10-26T01:41:11;101353.59;;;12.28;94.50
15750;BME280;7976;52.526;13.326;2022-10-26T01:43:42;101355.34;;;12.28;94.71
15750;BME280;7976;52.526;13.326;2022-10-26T01:46:15;101346.59;;;12.27;94.84
15750;BME280;7976;52.526;13.326;2022-10-26T01:48:44;101346.66;;;12.26;94.64
15750;BME280;7976;52.526;13.326;2022-10-26T01:51:13;101347.63;;;12.23;94.09
15750;BME280;7976;52.526;13.326;2022-10-26T01:53:44;101347.75;;;12.20;94.60
15750;BME280;7976;52.526;13.326;2022-10-26T01:56:17;101340.75;;;12.19;94.40
15750;BME280;7976;52.526;13.326;2022-10-26T01:59:05;101338.94;;;12.21;94.60
15750;BME280;7976;52.526;13.326;2022-10-26T02:05:25;101339.06;;;12.18;94.72
15750;BME280;7976;52.526;13.326;2022-10-26T02:08:07;101338.25;;;12.16;94.86
15750;BME280;7976;52.526;13.326;2022-10-26T02:10:53;101333.16;;;12.12;94.55
15750;BME280;7976;52.526;13.326;2022-10-26T02:13:32;101339.34;;;12.09;94.64
15750;BME280;7976;52.526;13.326;2022-10-26T02:16:15;101335.09;;;12.07;94.38
15750;BME280;7976;52.526;13.326;2022-10-26T02:18:55;101330.78;;;12.04;94.78
15750;BME280;7976;52.526;13.326;2022-10-26T02:21:34;101334.22;;;12.06;94.77
15750;BME280;7976;52.526;13.326;2022-10-26T02:24:05;101327.28;;;12.05;95.01
15750;BME280;7976;52.526;13.326;2022-10-26T02:26:36;101329.91;;;12.05;95.09
15750;BME280;7976;52.526;13.326;2022-10-26T02:29:10;101320.28;;;12.04;95.11
15750;BME280;7976;52.526;13.326;2022-10-26T02:31:40;101320.28;;;12.04;95.04
15750;BME280;7976;52.526;13.326;2022-10-26T02:34:12;101329.91;;;12.05;94.84
15750;BME280;7976;52.526;13.326;2022-10-26T02:36:44;101330.78;;;12.04;94.70
15750;BME280;7976;52.526;13.326;2022-10-26T02:39:15;101330.78;;;12.04;94.71
15750;BME280;7976;52.526;13.326;2022-10-26T02:41:44;101328.22;;;12.03;94.54
15750;BME280;7976;52.526;13.326;2022-10-26T02:44:20;101332.69;;;11.99;94.73
15750;BME280;7976;52.526;13.326;2022-10-26T02:46:50;101337.94;;;11.99;94.52
15750;BME280;7976;52.526;13.326;2022-10-26T02:49:20;101331.88;;;11.97;94.47
15750;BME280;7976;52.526;13.326;2022-10-26T02:51:52;101339.88;;;11.94;94.58
15750;BME280;7976;52.526;13.326;2022-10-26T02:54:30;101346.91;;;11.92;94.64
15750;BME280;7976;52.526;13.326;2022-10-26T02:57:01;101344.31;;;11.92;95.03
15750;BME280;7976;52.526;13.326;2022-10-26T02:59:35;101339.03;;;11.94;94.85
15750;BME280;7976;52.526;13.326;2022-10-26T03:02:04;101339.06;;;11.92;94.69
15750;BME280;7976;52.526;13.326;2022-10-26T03:04:34;101339.97;;;11.91;94.93
15750;BME280;7976;52.526;13.326;2022-10-26T03:07:01;101333.88;;;11.91;95.05
15750;BME280;7976;52.526;13.326;2022-10-26T03:09:28;101327.84;;;11.89;94.98
15750;BME280;7976;52.526;13.326;2022-10-26T03:11:55;101345.28;;;11.90;94.85
15750;BME280;7976;52.526;13.326;2022-10-26T03:14:22;101348.75;;;11.90;95.09
15750;BME280;7976;52.526;13.326;2022-10-26T03:16:49;101347.84;;;11.91;95.08
15750;BME280;7976;52.526;13.326;2022-10-26T03:19:16;101343.53;;;11.90;94.99
15750;BME280;7976;52.526;13.326;2022-10-26T03:21:44;101342.72;;;11.88;94.81
15750;BME280;7976;52.526;13.326;2022-10-26T03:24:11;101341.88;;;11.86;95.10
15750;BME280;7976;52.526;13.326;2022-10-26T03:26:38;101350.63;;;11.87;94.80
15750;BME280;7976;52.526;13.326;2022-10-26T03:29:05;101343.69;;;11.84;94.88
15750;BME280;7976;52.526;13.326;2022-10-26T03:31:33;101345.44;;;11.85;94.71
15750;BME280;7976;52.526;13.326;2022-10-26T03:34:00;101347.13;;;11.86;94.92
15750;BME280;7976;52.526;13.326;2022-10-26T03:36:27;101347.13;;;11.86;94.82
15750;BME280;7976;52.526;13.326;2022-10-26T03:38:55;101340.13;;;11.87;95.03
15750;BME280;7976;52.526;13.326;2022-10-26T03:41:22;101347.19;;;11.85;94.70
15750;BME280;7976;52.526;13.326;2022-10-26T03:43:49;101345.50;;;11.82;94.59
15750;BME280;7976;52.526;13.326;2022-10-26T03:46:16;101343.81;;;11.81;95.09
15750;BME280;7976;52.526;13.326;2022-10-26T03:48:43;101348.13;;;11.82;94.99
15750;BME280;7976;52.526;13.326;2022-10-26T03:51:09;101345.50;;;11.82;95.43
15750;BME280;7976;52.526;13.326;2022-10-26T03:53:36;101341.19;;;11.81;94.94
15750;BME280;7976;52.526;13.326;2022-10-26T03:56:05;101347.28;;;11.82;95.02
15750;BME280;7976;52.526;13.326;2022-10-26T03:58:33;101349.06;;;11.81;95.38
15750;BME280;7976;52.526;13.326;2022-10-26T04:00:59;101347.25;;;11.83;95.22
15750;BME280;7976;52.526;13.326;2022-10-26T04:03:26;101340.25;;;11.82;95.15
15750;BME280;7976;52.526;13.326;2022-10-26T04:05:53;101351.72;;;11.80;95.03
15750;BME280;7976;52.526;13.326;2022-10-26T04:08:20;101343.97;;;11.77;95.28
15750;BME280;7976;52.526;13.326;2022-10-26T04:10:46;101349.25;;;11.75;95.38
15750;BME280;7976;52.526;13.326;2022-10-26T04:13:15;101346.72;;;11.72;95.35
15750;BME280;7976;52.526;13.326;2022-10-26T04:15:42;101350.19;;;11.73;95.40
15750;BME280;7976;52.526;13.326;2022-10-26T04:18:09;101349.34;;;11.72;95.49
15750;BME280;7976;52.526;13.326;2022-10-26T04:20:38;101343.31;;;11.70;95.51
15750;BME280;7976;52.526;13.326;2022-10-26T04:23:10;101348.56;;;11.70;95.44
15750;BME280;7976;52.526;13.326;2022-10-26T04:25:37;101348.56;;;11.70;95.74
15750;BME280;7976;52.526;13.326;2022-10-26T04:28:06;101339.81;;;11.70;95.79
15750;BME280;7976;52.526;13.326;2022-10-26T04:30:36;101351.16;;;11.70;95.99
15750;BME280;7976;52.526;13.326;2022-10-26T04:33:04;101354.69;;;11.69;95.83
15750;BME280;7976;52.526;13.326;2022-10-26T04:35:31;101352.06;;;11.69;96.00
15750;BME280;7976;52.526;13.326;2022-10-26T04:37:59;101344.19;;;11.69;96.07
15750;BME280;7976;52.526;13.326;2022-10-26T04:40:27;101354.56;;;11.72;96.02
15750;BME280;7976;52.526;13.326;2022-10-26T04:42:55;101347.63;;;11.71;95.85
15750;BME280;7976;52.526;13.326;2022-10-26T04:45:21;101354.69;;;11.69;96.03
15750;BME280;7976;52.526;13.326;2022-10-26T04:48:01;101352.09;;;11.68;96.04
15750;BME280;7976;52.526;13.326;2022-10-26T04:50:28;101352.22;;;11.65;95.94
15750;BME280;7976;52.526;13.326;2022-10-26T04:52:54;101348.72;;;11.64;96.19
15750;BME280;7976;52.526;13.326;2022-10-26T04:55:22;101353.13;;;11.64;95.80
15750;BME280;7976;52.526;13.326;2022-10-26T04:57:48;101348.72;;;11.64;95.96
15750;BME280;7976;52.526;13.326;2022-10-26T05:00:15;101352.22;;;11.63;95.99
15750;BME280;7976;52.526;13.326;2022-10-26T05:02:42;101350.50;;;11.62;96.14
15750;BME280;7976;52.526;13.326;2022-10-26T05:05:10;101354.91;;;11.62;95.92
15750;BME280;7976;52.526;13.326;2022-10-26T05:07:37;101344.38;;;11.63;96.02
15750;BME280;7976;52.526;13.326;2022-10-26T05:10:05;101346.09;;;11.64;96.26
15750;BME280;7976;52.526;13.326;2022-10-26T05:12:32;101351.34;;;11.64;95.97
15750;BME280;7976;52.526;13.326;2022-10-26T05:14:59;101344.38;;;11.63;95.94
15750;BME280;7976;52.526;13.326;2022-10-26T05:17:26;101338.31;;;11.61;96.32
15750;BME280;7976;52.526;13.326;2022-10-26T05:19:53;101343.50;;;11.63;96.11
15750;BME280;7976;52.526;13.326;2022-10-26T05:22:24;101341.75;;;11.63;95.91
15750;BME280;7976;52.526;13.326;2022-10-26T05:24:51;101346.09;;;11.64;96.06
15750;BME280;7976;52.526;13.326;2022-10-26T05:27:17;101353.97;;;11.64;95.97
15750;BME280;7976;52.526;13.326;2022-10-26T05:29:45;101352.28;;;11.62;95.70
15750;BME280;7976;52.526;13.326;2022-10-26T05:32:12;101353.13;;;11.62;96.21
15750;BME280;7976;52.526;13.326;2022-10-26T05:34:38;101351.34;;;11.64;95.90
15750;BME280;7976;52.526;13.326;2022-10-26T05:37:05;101348.72;;;11.64;95.74
15750;BME280;7976;52.526;13.326;2022-10-26T05:39:33;101347.03;;;11.62;95.64
15750;BME280;7976;52.526;13.326;2022-10-26T05:42:00;101353.16;;;11.61;95.71
15750;BME280;7976;52.526;13.326;2022-10-26T05:44:27;101355.00;;;11.59;95.38
15750;BME280;7976;52.526;13.326;2022-10-26T05:46:53;101355.03;;;11.57;95.55
15750;BME280;7976;52.526;13.326;2022-10-26T05:49:20;101356.81;;;11.57;95.59
15750;BME280;7976;52.526;13.326;2022-10-26T05:51:47;101354.31;;;11.52;95.53
15750;BME280;7976;52.526;13.326;2022-10-26T05:54:14;101365.72;;;11.51;95.67
15750;BME280;7976;52.526;13.326;2022-10-26T05:56:43;101371.94;;;11.49;95.62
15750;BME280;7976;52.526;13.326;2022-10-26T05:59:12;101364.09;;;11.47;95.49
15750;BME280;7976;52.526;13.326;2022-10-26T06:02:01;101374.66;;;11.44;95.44
15750;BME280;7976;52.526;13.326;2022-10-26T06:04:35;101376.47;;;11.42;95.47
15750;BME280;7976;52.526;13.326;2022-10-26T06:07:10;101366.09;;;11.39;95.45
15750;BME280;7976;52.526;13.326;2022-10-26T06:09:38;101377.53;;;11.36;95.53
15750;BME280;7976;52.526;13.326;2022-10-26T06:12:09;101373.28;;;11.32;95.33
15750;BME280;7976;52.526;13.326;2022-10-26T06:14:37;101371.63;;;11.30;95.26
15750;BME280;7976;52.526;13.326;2022-10-26T06:17:17;101378.66;;;11.28;95.23
15750;BME280;7976;52.526;13.326;2022-10-26T06:20:12;101371.69;;;11.27;95.23
15750;BME280;7976;52.526;13.326;2022-10-26T06:23:00;101372.59;;;11.26;95.17
15750;BME280;7976;52.526;13.326;2022-10-26T06:25:41;101382.16;;;11.27;95.12
15750;BME280;7976;52.526;13.326;2022-10-26T06:28:27;101376.09;;;11.26;95.04
15750;BME280;7976;52.526;13.326;2022-10-26T06:30:56;101384.00;;;11.25;94.58
15750;BME280;7976;52.526;13.326;2022-10-26T06:33:25;101391.81;;;11.26;94.82
15750;BME280;7976;52.526;13.326;2022-10-26T06:36:03;101385.66;;;11.27;94.69
15750;BME280;7976;52.526;13.326;2022-10-26T06:38:35;101392.63;;;11.28;94.76
15750;BME280;7976;52.526;13.326;2022-10-26T06:41:05;101389.91;;;11.31;94.70
15750;BME280;7976;52.526;13.326;2022-10-26T06:43:35;101392.53;;;11.31;94.72
15750;BME280;7976;52.526;13.326;2022-10-26T06:46:17;101393.31;;;11.35;94.82
15750;BME280;7976;52.526;13.326;2022-10-26T06:48:57;101395.81;;;11.38;95.12
15750;BME280;7976;52.526;13.326;2022-10-26T06:51:28;101393.97;;;11.42;94.90
15750;BME280;7976;52.526;13.326;2022-10-26T06:54:04;101398.25;;;11.44;94.92
15750;BME280;7976;52.526;13.326;2022-10-26T06:56:35;101397.38;;;11.45;94.82
15750;BME280;7976;52.526;13.326;2022-10-26T06:59:13;101409.44;;;11.49;94.96
15750;BME280;7976;52.526;13.326;2022-10-26T07:01:42;101404.22;;;11.49;94.91
15750;BME280;7976;52.526;13.326;2022-10-26T07:04:08;101400.72;;;11.50;94.68
15750;BME280;7976;52.526;13.326;2022-10-26T07:06:35;101403.28;;;11.52;94.57
15750;BME280;7976;52.526;13.326;2022-10-26T07:09:02;101396.25;;;11.52;94.39
15750;BME280;7976;52.526;13.326;2022-10-26T07:11:29;101395.38;;;11.53;94.25
15750;BME280;7976;52.526;13.326;2022-10-26T07:13:56;101394.41;;;11.56;94.25
15750;BME280;7976;52.526;13.326;2022-10-26T07:16:24;101402.16;;;11.60;94.35
15750;BME280;7976;52.526;13.326;2022-10-26T07:18:52;101403.84;;;11.61;94.11
15750;BME280;7976;52.526;13.326;2022-10-26T07:21:19;101396.72;;;11.66;94.67
15750;BME280;7976;52.526;13.326;2022-10-26T07:23:46;101393.13;;;11.70;94.18
15750;BME280;7976;52.526;13.326;2022-10-26T07:26:13;101397.41;;;11.73;94.34
15750;BME280;7976;52.526;13.326;2022-10-26T07:28:40;101399.19;;;11.71;93.83
15750;BME280;7976;52.526;13.326;2022-10-26T07:31:07;101397.25;;;11.77;94.24
15750;BME280;7976;52.526;13.326;2022-10-26T07:33:36;101397.97;;;11.82;94.08
15750;BME280;7976;52.526;13.326;2022-10-26T07:36:04;101396.16;;;11.84;94.24
15750;BME280;7976;52.526;13.326;2022-10-26T07:38:31;101402.22;;;11.86;93.88
15750;BME280;7976;52.526;13.326;2022-10-26T07:40:57;101399.47;;;11.89;94.02
15750;BME280;7976;52.526;13.326;2022-10-26T07:43:24;101403.78;;;11.92;93.79
15750;BME280;7976;52.526;13.326;2022-10-26T07:45:51;101394.94;;;11.94;93.88
15750;BME280;7976;52.526;13.326;2022-10-26T07:48:18;101405.31;;;11.99;93.65
15750;BME280;7976;52.526;13.326;2022-10-26T07:50:46;101394.72;;;12.02;93.70
15750;BME280;7976;52.526;13.326;2022-10-26T07:53:13;101401.56;;;12.06;93.65
15750;BME280;7976;52.526;13.326;2022-10-26T07:55:40;101407.56;;;12.09;93.56
15750;BME280;7976;52.526;13.326;2022-10-26T07:58:07;101403.09;;;12.13;93.54
15750;BME280;7976;52.526;13.326;2022-10-26T08:00:34;101395.16;;;12.14;93.49
15750;BME280;7976;52.526;13.326;2022-10-26T08:03:01;101394.16;;;12.18;93.46
15750;BME280;7976;52.526;13.326;2022-10-26T08:05:28;101398.38;;;12.22;93.24
15750;BME280;7976;52.526;13.326;2022-10-26T08:07:56;101401.75;;;12.26;92.96
15750;BME280;7976;52.526;13.326;2022-10-26T08:10:23;101399.00;;;12.30;92.76
15750;BME280;7976;52.526;13.326;2022-10-26T08:12:51;101399.72;;;12.35;92.89
15750;BME280;7976;52.526;13.326;2022-10-26T08:15:18;101400.47;;;12.39;92.95
15750;BME280;7976;52.526;13.326;2022-10-26T08:17:45;101404.63;;;12.44;92.95
15750;BME280;7976;52.526;13.326;2022-10-26T08:20:12;101409.63;;;12.52;93.02
15750;BME280;7976;52.526;13.326;2022-10-26T08:22:39;101409.47;;;12.56;92.59
15750;BME280;7976;52.526;13.326;2022-10-26T08:25:13;101417.19;;;12.61;92.51
15750;BME280;7976;52.526;13.326;2022-10-26T08:27:43;101408.41;;;12.62;92.41
15750;BME280;7976;52.526;13.326;2022-10-26T08:30:11;101415.09;;;12.71;92.37
15750;BME280;7976;52.526;13.326;2022-10-26T08:32:38;101408.81;;;12.75;92.31
15750;BME280;7976;52.526;13.326;2022-10-26T08:35:07;101410.31;;;12.82;92.00
15750;BME280;7976;52.526;13.326;2022-10-26T08:37:35;101414.50;;;12.87;91.98
15750;BME280;7976;52.526;13.326;2022-10-26T08:40:02;101409.03;;;12.93;92.00
15750;BME280;7976;52.526;13.326;2022-10-26T08:42:37;101404.41;;;13.00;91.98
15750;BME280;7976;52.526;13.326;2022-10-26T08:45:18;101406.81;;;13.07;92.01
15750;BME280;7976;52.526;13.326;2022-10-26T08:47:55;101410.94;;;13.14;91.68
15750;BME280;7976;52.526;13.326;2022-10-26T08:50:28;101408.06;;;13.20;91.43
15750;BME280;7976;52.526;13.326;2022-10-26T08:53:02;101404.34;;;13.26;91.56
15750;BME280;7976;52.526;13.326;2022-10-26T08:55:42;101404.06;;;13.33;91.20
15750;BME280;7976;52.526;13.326;2022-10-26T08:58:15;101402.03;;;13.40;91.19
15750;BME280;7976;52.526;13.326;2022-10-26T09:00:47;101404.47;;;13.46;90.93
15750;BME280;7976;52.526;13.326;2022-10-26T09:03:17;101402.50;;;13.51;90.85
15750;BME280;7976;52.526;13.326;2022-10-26T09:06:03;101400.63;;;13.54;90.76
15750;BME280;7976;52.526;13.326;2022-10-26T09:08:47;101405.56;;;13.62;90.75
15750;BME280;7976;52.526;13.326;2022-10-26T09:11:29;101393.22;;;13.64;90.45
15750;BME280;7976;52.526;13.326;2022-10-26T09:14:13;101395.53;;;13.71;90.20
15750;BME280;7976;52.526;13.326;2022-10-26T09:16:58;101411.97;;;13.78;90.13
15750;BME280;7976;52.526;13.326;2022-10-26T09:19:50;101400.25;;;13.85;90.07
15750;BME280;7976;52.526;13.326;2022-10-26T09:22:31;101409.63;;;13.92;89.80
15750;BME280;7976;52.526;13.326;2022-10-26T09:25:07;101407.59;;;13.99;89.56
15750;BME280;7976;52.526;13.326;2022-10-26T09:27:44;101414.41;;;14.04;89.60
15750;BME280;7976;52.526;13.326;2022-10-26T09:30:17;101403.59;;;14.10;89.01
15750;BME280;7976;52.526;13.326;2022-10-26T09:32:48;101412.16;;;14.15;89.04
15750;BME280;7976;52.526;13.326;2022-10-26T09:35:20;101404.09;;;14.20;88.86
15750;BME280;7976;52.526;13.326;2022-10-26T09:37:54;101408.28;;;14.25;88.88
15750;BME280;7976;52.526;13.326;2022-10-26T09:40:26;101409.81;;;14.31;88.59
15750;BME280;7976;52.526;13.326;2022-10-26T09:43:00;101406.13;;;14.35;88.70
15750;BME280;7976;52.526;13.326;2022-10-26T09:45:35;101418.16;;;14.40;88.53
15750;BME280;7976;52.526;13.326;2022-10-26T09:48:13;101412.66;;;14.46;88.32
15750;BME280;7976;52.526;13.326;2022-10-26T09:50:47;101410.50;;;14.56;87.98
15750;BME280;7976;52.526;13.326;2022-10-26T09:53:15;101422.78;;;14.95;87.99
15750;BME280;7976;52.526;13.326;2022-10-26T09:55:46;101417.84;;;15.47;86.46
15750;BME280;7976;52.526;13.326;2022-10-26T09:58:19;101426.16;;;15.75;84.53
15750;BME280;7976;52.526;13.326;2022-10-26T10:00:50;101419.19;;;15.74;84.05
15750;BME280;7976;52.526;13.326;2022-10-26T10:03:23;101423.94;;;15.66;83.69
15750;BME280;7976;52.526;13.326;2022-10-26T10:05:51;101416.34;;;15.60;83.59
15750;BME280;7976;52.526;13.326;2022-10-26T10:08:21;101426.75;;;15.63;83.62
15750;BME280;7976;52.526;13.326;2022-10-26T10:10:58;101421.69;;;15.77;83.81
15750;BME280;7976;52.526;13.326;2022-10-26T10:13:28;101425.38;;;15.91;83.26
15750;BME280;7976;52.526;13.326;2022-10-26T10:16:05;101415.50;;;15.95;82.51
15750;BME280;7976;52.526;13.326;2022-10-26T10:18:34;101421.84;;;15.91;82.18
15750;BME280;7976;52.526;13.326;2022-10-26T10:21:04;101417.75;;;15.85;81.57
15750;BME280;7976;52.526;13.326;2022-10-26T10:23:34;101419.69;;;15.82;81.99
15750;BME280;7976;52.526;13.326;2022-10-26T10:26:08;101423.38;;;15.78;81.65
15750;BME280;7976;52.526;13.326;2022-10-26T10:28:37;101431.44;;;15.75;81.57
15750;BME280;7976;52.526;13.326;2022-10-26T10:31:20;101424.47;;;15.74;81.52
15750;BME280;7976;52.526;13.326;2022-10-26T10:33:48;101421.91;;;15.72;81.47
15750;BME280;7976;52.526;13.326;2022-10-26T10:36:18;101424.53;;;15.72;81.34
15750;BME280;7976;52.526;13.326;2022-10-26T10:38:48;101414.03;;;15.71;81.43
15750;BME280;7976;52.526;13.326;2022-10-26T10:41:19;101428.03;;;15.73;81.40
15750;BME280;7976;52.526;13.326;2022-10-26T10:43:51;101424.53;;;15.72;80.87
15750;BME280;7976;52.526;13.326;2022-10-26T10:46:23;101423.59;;;15.73;80.94
15750;BME280;7976;52.526;13.326;2022-10-26T10:49:03;101425.31;;;15.74;81.00
15750;BME280;7976;52.526;13.326;2022-10-26T10:51:37;101417.31;;;15.76;81.18
15750;BME280;7976;52.526;13.326;2022-10-26T10:54:17;101413.59;;;15.80;80.71
15750;BME280;7976;52.526;13.326;2022-10-26T10:56:50;101414.41;;;15.82;81.22
15750;BME280;7976;52.526;13.326;2022-10-26T10:59:44;101410.66;;;15.86;80.69
15750;BME280;7976;52.526;13.326;2022-10-26T11:03:03;101409.59;;;15.90;80.67
15750;BME280;7976;52.526;13.326;2022-10-26T11:06:00;101414.72;;;15.93;80.91
15750;BME280;7976;52.526;13.326;2022-10-26T11:08:37;101410.22;;;15.95;80.42
15750;BME280;7976;52.526;13.326;2022-10-26T11:11:12;101418.00;;;15.98;80.56
15750;BME280;7976;52.526;13.326;2022-10-26T11:13:49;101423.13;;;16.01;80.50
15750;BME280;7976;52.526;13.326;2022-10-26T11:16:22;101424.69;;;16.05;80.38
15750;BME280;7976;52.526;13.326;2022-10-26T11:18:57;101418.44;;;16.07;80.04
15750;BME280;7976;52.526;13.326;2022-10-26T11:21:29;101421.81;;;16.09;79.75
15750;BME280;7976;52.526;13.326;2022-10-26T11:24:11;101417.25;;;16.13;80.29
15750;BME280;7976;52.526;13.326;2022-10-26T11:26:48;101417.25;;;16.13;80.34
15750;BME280;7976;52.526;13.326;2022-10-26T11:29:41;101408.34;;;16.15;80.21
15750;BME280;7976;52.526;13.326;2022-10-26T11:32:16;101402.19;;;16.15;79.90
15750;BME280;7976;52.526;13.326;2022-10-26T11:34:53;101404.84;;;16.15;79.28
15750;BME280;7976;52.526;13.326;2022-10-26T11:37:30;101404.84;;;16.15;79.71
15750;BME280;7976;52.526;13.326;2022-10-26T11:40:20;101401.25;;;16.16;79.56
15750;BME280;7976;52.526;13.326;2022-10-26T11:42:57;101394.09;;;16.18;79.33
15750;BME280;7976;52.526;13.326;2022-10-26T11:45:31;101390.41;;;16.22;79.55
15750;BME280;7976;52.526;13.326;2022-10-26T11:48:11;101390.25;;;16.25;79.05
15750;BME280;7976;52.526;13.326;2022-10-26T11:50:46;101389.25;;;16.27;79.29
15750;BME280;7976;52.526;13.326;2022-10-26T11:53:17;101382.94;;;16.30;78.93
15750;BME280;7976;52.526;13.326;2022-10-26T11:55:49;101388.16;;;16.31;78.80
15750;BME280;7976;52.526;13.326;2022-10-26T11:58:17;101388.69;;;16.38;79.04
15750;BME280;7976;52.526;13.326;2022-10-26T12:00:48;101385.47;;;16.50;78.84
15750;BME280;7976;52.526;13.326;2022-10-26T12:03:22;101382.09;;;16.64;78.99
15750;BME280;7976;52.526;13.326;2022-10-26T12:05:53;101392.28;;;16.71;78.46
15750;BME280;7976;52.526;13.326;2022-10-26T12:08:24;101393.06;;;16.73;78.06
15750;BME280;7976;52.526;13.326;2022-10-26T12:11:01;101380.00;;;16.70;77.86
15750;BME280;7976;52.526;13.326;2022-10-26T12:13:37;101380.00;;;16.70;77.56
15750;BME280;7976;52.526;13.326;2022-10-26T12:16:16;101372.22;;;16.67;77.20
15750;BME280;7976;52.526;13.326;2022-10-26T12:18:51;101374.97;;;16.66;77.45
15750;BME280;7976;52.526;13.326;2022-10-26T12:21:25;101382.88;;;16.66;77.09
15750;BME280;7976;52.526;13.326;2022-10-26T12:23:57;101376.75;;;16.65;77.33
15750;BME280;7976;52.526;13.326;2022-10-26T12:26:52;101380.25;;;16.66;76.56
15750;BME280;7976;52.526;13.326;2022-10-26T12:29:45;101374.09;;;16.65;76.44
15750;BME280;7976;52.526;13.326;2022-10-26T12:32:51;101371.38;;;16.67;76.13
15750;BME280;7976;52.526;13.326;2022-10-26T12:35:37;101369.69;;;16.66;76.17
15750;BME280;7976;52.526;13.326;2022-10-26T12:41:26;101377.53;;;16.67;75.86
15750;BME280;7976;52.526;13.326;2022-10-26T12:43:56;101372.22;;;16.67;75.86
15750;BME280;7976;52.526;13.326;2022-10-26T12:46:42;101370.50;;;16.66;76.20
15750;BME280;7976;52.526;13.326;2022-10-26T12:49:57;101372.22;;;16.67;76.70
15750;BME280;7976;52.526;13.326;2022-10-26T12:52:42;101377.53;;;16.67;76.65
15750;BME280;7976;52.526;13.326;2022-10-26T12:55:59;101375.66;;;16.69;76.74
15750;BME280;7976;52.526;13.326;2022-10-26T12:59:10;101377.34;;;16.70;77.17
15750;BME280;7976;52.526;13.326;2022-10-26T13:02:30;101378.31;;;16.69;77.37
15750;BME280;7976;52.526;13.326;2022-10-26T13:05:41;101375.66;;;16.69;77.73
15750;BME280;7976;52.526;13.326;2022-10-26T13:08:16;101378.31;;;16.69;77.26
15750;BME280;7976;52.526;13.326;2022-10-26T13:11:01;101373.75;;;16.71;77.35
15750;BME280;7976;52.526;13.326;2022-10-26T13:13:32;101371.13;;;16.71;77.41
15750;BME280;7976;52.526;13.326;2022-10-26T13:16:01;101364.06;;;16.72;77.45
15750;BME280;7976;52.526;13.326;2022-10-26T13:18:29;101366.53;;;16.75;77.86
15750;BME280;7976;52.526;13.326;2022-10-26T13:21:05;101365.63;;;16.76;77.19
15750;BME280;7976;52.526;13.326;2022-10-26T13:23:37;101367.41;;;16.75;77.80
15750;BME280;7976;52.526;13.326;2022-10-26T13:26:08;101363.88;;;16.75;77.77
15750;BME280;7976;52.526;13.326;2022-10-26T13:28:49;101368.34;;;16.74;77.82